This is the latest recevied weather packets stored in our database for station/object W4CKA. If no packets are shown the sender has not sent any weather packets the latest 10 day(s).
| Time | Temp. | Humidity | Pressure | Rain* | Wind** | Luminosity | Snow |
|---|---|---|---|---|---|---|---|
| 1787608622 | 27.78° C | 51% | 1059.1 hPa | 0 mm | - | 199 W/m² | - |
| 1787608020 | 27.22° C | 53% | 1059.1 hPa | 0 mm | - | 196 W/m² | - |
| 1787607419 | 27.78° C | 53% | 1059.2 hPa | 0 mm | - | 228 W/m² | - |
| 1787606816 | 27.22° C | 52% | 1059.1 hPa | 0 mm | - | 278 W/m² | - |
| 1787606214 | 28.33° C | 52% | 1059.1 hPa | 0 mm | - | 262 W/m² | - |
| 1787605613 | 27.78° C | 50% | 1059.2 hPa | 0 mm | - | 396 W/m² | - |
| 1787605009 | 27.78° C | 50% | 1059.1 hPa | 0 mm | - | 389 W/m² | - |
| 1787604409 | 26.67° C | 53% | 1059.3 hPa | 0 mm | - | 340 W/m² | - |
| 1787603809 | 27.78° C | 51% | 1059.4 hPa | 0 mm | - | 426 W/m² | - |
| 1787603206 | 27.22° C | 50% | 1059.4 hPa | 0 mm | - | 433 W/m² | - |
| 1787602603 | 27.22° C | 56% | 1059.6 hPa | 0 mm | - | 543 W/m² | - |
| 1787601998 | 27.78° C | 56% | 1059.7 hPa | 0 mm | - | 480 W/m² | - |
| 1787601393 | 27.78° C | 57% | 1059.8 hPa | 0 mm | - | 586 W/m² | - |
| 1787600792 | 27.22° C | 59% | 1059.6 hPa | 0 mm | - | 538 W/m² | - |
| 1787600190 | 27.78° C | 56% | 1060 hPa | 0 mm | - | 668 W/m² | - |
| 1787599588 | 27.78° C | 63% | 1059.7 hPa | 0 mm | - | 634 W/m² | - |
| 1787598985 | 26.67° C | 56% | 1059.7 hPa | 0 mm | - | 652 W/m² | - |
| 1787598381 | 27.22° C | 56% | 1059.6 hPa | 0 mm | - | 683 W/m² | - |
| 1787597778 | 27.78° C | 58% | 1059.7 hPa | 0 mm | - | 766 W/m² | - |
| 1787597177 | 27.78° C | 55% | 1059.6 hPa | 0 mm | - | 519 W/m² | - |
| 1787596575 | 26.67° C | 56% | 1059.7 hPa | 0 mm | - | 635 W/m² | - |
| 1787595972 | 27.22° C | 63% | 1059.7 hPa | 0 mm | - | 699 W/m² | - |
| 1787595369 | 25.56° C | 62% | 1059.8 hPa | 0 mm | - | 675 W/m² | - |
| 1787594769 | 26.67° C | 61% | 1059.8 hPa | 0 mm | - | 511 W/m² | - |
| 1787594167 | 27.22° C | 59% | 1059.5 hPa | 0 mm | - | 193 W/m² | - |
* Rain latest hour (hover to see other rain measurements)
** Current wind speed in m/s (hover to see current wind gust speed)